Bringhurst, Indiana
Current Conditions -  °F | °C
As of 3:55 PM on Tuesday 21 Oct 2014 (Local Time) from KGGP Reporting Station
Overcast Overcast  
Wind Chill: 12°   Ceiling: 4800
Heat Index: 12°   Visibility: 10mi
Dew Point:   Wind: 7mph
Humidity: 62%   Direction: 360°N
Pressure: 30.12"   Gusts: NA
Location:  40.53°N, 86.52°W
Report Text: KGGP 211955Z AUTO 36006KT 10SM SCT032 BKN048 OVC050 12/05 A3012 RMK AO2
Loading
Personal Weather Stations






























Interactive Weather Map
Tropical Storm Tracking
New forecast layout! Learn more

10-Day Weather Forecast

Advertisements
Track Severe Weather on mobile